sensor_id;sensor_type;location;lat;lon;timestamp;P1;durP1;ratioP1;P2;durP2;ratioP2
60026;SDS011;45891;53.006;6.512;2022-08-16T00:01:28;14.30;;;9.57;;
60026;SDS011;45891;53.006;6.512;2022-08-16T00:03:54;14.40;;;9.60;;
60026;SDS011;45891;53.006;6.512;2022-08-16T00:06:20;14.50;;;10.00;;
60026;SDS011;45891;53.006;6.512;2022-08-16T00:08:47;15.65;;;9.70;;
60026;SDS011;45891;53.006;6.512;2022-08-16T00:11:13;18.23;;;9.25;;
60026;SDS011;45891;53.006;6.512;2022-08-16T00:13:40;14.30;;;9.38;;
60026;SDS011;45891;53.006;6.512;2022-08-16T00:16:06;14.80;;;9.10;;
60026;SDS011;45891;53.006;6.512;2022-08-16T00:18:32;17.15;;;8.57;;
60026;SDS011;45891;53.006;6.512;2022-08-16T00:20:58;15.45;;;9.18;;
60026;SDS011;45891;53.006;6.512;2022-08-16T00:23:24;14.23;;;9.10;;
60026;SDS011;45891;53.006;6.512;2022-08-16T00:25:51;14.32;;;9.05;;
60026;SDS011;45891;53.006;6.512;2022-08-16T00:28:17;14.65;;;9.10;;
60026;SDS011;45891;53.006;6.512;2022-08-16T00:30:43;14.35;;;8.38;;
60026;SDS011;45891;53.006;6.512;2022-08-16T00:33:09;13.25;;;9.05;;
60026;SDS011;45891;53.006;6.512;2022-08-16T00:35:36;12.82;;;7.35;;
60026;SDS011;45891;53.006;6.512;2022-08-16T00:38:03;14.48;;;8.80;;
60026;SDS011;45891;53.006;6.512;2022-08-16T00:40:41;13.13;;;8.00;;
60026;SDS011;45891;53.006;6.512;2022-08-16T00:43:14;14.77;;;8.65;;
60026;SDS011;45891;53.006;6.512;2022-08-16T00:48:37;15.07;;;9.25;;
60026;SDS011;45891;53.006;6.512;2022-08-16T00:51:04;13.13;;;8.87;;
60026;SDS011;45891;53.006;6.512;2022-08-16T00:53:30;11.95;;;8.73;;
60026;SDS011;45891;53.006;6.512;2022-08-16T00:55:58;15.23;;;9.32;;
60026;SDS011;45891;53.006;6.512;2022-08-16T00:58:28;15.13;;;9.88;;
60026;SDS011;45891;53.006;6.512;2022-08-16T01:00:56;14.67;;;8.97;;
60026;SDS011;45891;53.006;6.512;2022-08-16T01:03:24;14.95;;;9.77;;
60026;SDS011;45891;53.006;6.512;2022-08-16T01:05:52;16.40;;;10.25;;
60026;SDS011;45891;53.006;6.512;2022-08-16T01:08:20;13.35;;;9.00;;
60026;SDS011;45891;53.006;6.512;2022-08-16T01:10:47;16.88;;;9.15;;
60026;SDS011;45891;53.006;6.512;2022-08-16T01:13:16;14.95;;;9.63;;
60026;SDS011;45891;53.006;6.512;2022-08-16T01:15:46;15.65;;;10.10;;
60026;SDS011;45891;53.006;6.512;2022-08-16T01:18:17;16.77;;;11.30;;
60026;SDS011;45891;53.006;6.512;2022-08-16T01:20:51;15.82;;;10.13;;
60026;SDS011;45891;53.006;6.512;2022-08-16T01:26:18;15.48;;;10.35;;
60026;SDS011;45891;53.006;6.512;2022-08-16T01:28:44;16.38;;;11.25;;
60026;SDS011;45891;53.006;6.512;2022-08-16T01:31:13;15.55;;;11.20;;
60026;SDS011;45891;53.006;6.512;2022-08-16T01:33:41;17.70;;;11.20;;
60026;SDS011;45891;53.006;6.512;2022-08-16T01:36:08;18.23;;;11.77;;
60026;SDS011;45891;53.006;6.512;2022-08-16T01:38:36;17.05;;;12.18;;
60026;SDS011;45891;53.006;6.512;2022-08-16T01:41:11;15.98;;;11.23;;
60026;SDS011;45891;53.006;6.512;2022-08-16T01:43:40;17.15;;;11.98;;
60026;SDS011;45891;53.006;6.512;2022-08-16T01:46:26;16.52;;;11.13;;
60026;SDS011;45891;53.006;6.512;2022-08-16T01:48:56;18.30;;;13.13;;
60026;SDS011;45891;53.006;6.512;2022-08-16T01:51:26;16.90;;;11.80;;
60026;SDS011;45891;53.006;6.512;2022-08-16T01:53:53;17.38;;;12.43;;
60026;SDS011;45891;53.006;6.512;2022-08-16T01:56:20;18.55;;;12.43;;
60026;SDS011;45891;53.006;6.512;2022-08-16T01:58:48;18.05;;;12.25;;
60026;SDS011;45891;53.006;6.512;2022-08-16T02:01:14;14.35;;;11.50;;
60026;SDS011;45891;53.006;6.512;2022-08-16T02:03:40;16.77;;;12.23;;
60026;SDS011;45891;53.006;6.512;2022-08-16T02:06:06;22.25;;;13.73;;
60026;SDS011;45891;53.006;6.512;2022-08-16T02:08:32;18.65;;;14.00;;
60026;SDS011;45891;53.006;6.512;2022-08-16T02:10:59;17.65;;;14.25;;
60026;SDS011;45891;53.006;6.512;2022-08-16T02:13:29;19.65;;;14.32;;
60026;SDS011;45891;53.006;6.512;2022-08-16T02:15:55;21.90;;;14.63;;
60026;SDS011;45891;53.006;6.512;2022-08-16T02:18:21;16.90;;;14.38;;
60026;SDS011;45891;53.006;6.512;2022-08-16T02:20:48;20.98;;;15.00;;
60026;SDS011;45891;53.006;6.512;2022-08-16T02:23:16;19.50;;;15.77;;
60026;SDS011;45891;53.006;6.512;2022-08-16T02:25:42;22.83;;;16.10;;
60026;SDS011;45891;53.006;6.512;2022-08-16T02:28:10;19.42;;;16.02;;
60026;SDS011;45891;53.006;6.512;2022-08-16T02:30:36;19.70;;;16.35;;
60026;SDS011;45891;53.006;6.512;2022-08-16T02:33:02;21.33;;;15.95;;
60026;SDS011;45891;53.006;6.512;2022-08-16T02:35:29;17.58;;;15.10;;
60026;SDS011;45891;53.006;6.512;2022-08-16T02:37:56;20.33;;;16.13;;
60026;SDS011;45891;53.006;6.512;2022-08-16T02:40:23;18.00;;;14.75;;
60026;SDS011;45891;53.006;6.512;2022-08-16T02:42:50;17.63;;;15.02;;
60026;SDS011;45891;53.006;6.512;2022-08-16T02:45:17;21.15;;;15.70;;
60026;SDS011;45891;53.006;6.512;2022-08-16T02:47:46;20.33;;;14.52;;
60026;SDS011;45891;53.006;6.512;2022-08-16T02:50:12;19.70;;;14.15;;
60026;SDS011;45891;53.006;6.512;2022-08-16T02:52:38;17.63;;;14.18;;
60026;SDS011;45891;53.006;6.512;2022-08-16T02:55:05;19.40;;;13.82;;
60026;SDS011;45891;53.006;6.512;2022-08-16T02:57:32;19.08;;;14.15;;
60026;SDS011;45891;53.006;6.512;2022-08-16T02:59:59;17.77;;;14.32;;
60026;SDS011;45891;53.006;6.512;2022-08-16T03:02:29;17.88;;;14.20;;
60026;SDS011;45891;53.006;6.512;2022-08-16T03:04:55;18.63;;;14.50;;
60026;SDS011;45891;53.006;6.512;2022-08-16T03:07:22;18.65;;;14.80;;
60026;SDS011;45891;53.006;6.512;2022-08-16T03:09:48;18.33;;;14.13;;
60026;SDS011;45891;53.006;6.512;2022-08-16T03:12:15;19.08;;;14.77;;
60026;SDS011;45891;53.006;6.512;2022-08-16T03:14:41;17.92;;;14.63;;
60026;SDS011;45891;53.006;6.512;2022-08-16T03:17:07;16.70;;;13.70;;
60026;SDS011;45891;53.006;6.512;2022-08-16T03:19:33;17.65;;;14.55;;
60026;SDS011;45891;53.006;6.512;2022-08-16T03:22:00;19.73;;;14.45;;
60026;SDS011;45891;53.006;6.512;2022-08-16T03:24:27;19.10;;;14.25;;
60026;SDS011;45891;53.006;6.512;2022-08-16T03:26:53;18.33;;;14.40;;
60026;SDS011;45891;53.006;6.512;2022-08-16T03:29:19;19.63;;;13.98;;
60026;SDS011;45891;53.006;6.512;2022-08-16T03:31:46;21.50;;;15.35;;
60026;SDS011;45891;53.006;6.512;2022-08-16T03:34:12;18.58;;;14.48;;
60026;SDS011;45891;53.006;6.512;2022-08-16T03:36:38;18.15;;;15.20;;
60026;SDS011;45891;53.006;6.512;2022-08-16T03:39:04;20.33;;;15.68;;
60026;SDS011;45891;53.006;6.512;2022-08-16T03:41:30;19.50;;;15.48;;
60026;SDS011;45891;53.006;6.512;2022-08-16T03:43:56;17.95;;;15.27;;
60026;SDS011;45891;53.006;6.512;2022-08-16T03:46:22;21.15;;;16.20;;
60026;SDS011;45891;53.006;6.512;2022-08-16T03:48:48;18.70;;;15.73;;
60026;SDS011;45891;53.006;6.512;2022-08-16T03:51:15;22.65;;;16.13;;
60026;SDS011;45891;53.006;6.512;2022-08-16T03:53:42;19.13;;;15.18;;
60026;SDS011;45891;53.006;6.512;2022-08-16T03:56:09;19.73;;;15.68;;
60026;SDS011;45891;53.006;6.512;2022-08-16T03:58:36;19.50;;;15.02;;
60026;SDS011;45891;53.006;6.512;2022-08-16T04:01:02;18.47;;;15.33;;
60026;SDS011;45891;53.006;6.512;2022-08-16T04:03:29;18.15;;;15.73;;
60026;SDS011;45891;53.006;6.512;2022-08-16T04:05:56;19.92;;;15.25;;
60026;SDS011;45891;53.006;6.512;2022-08-16T04:08:22;22.65;;;15.60;;
60026;SDS011;45891;53.006;6.512;2022-08-16T04:10:49;20.55;;;14.48;;
60026;SDS011;45891;53.006;6.512;2022-08-16T04:13:19;19.10;;;15.77;;
60026;SDS011;45891;53.006;6.512;2022-08-16T04:15:46;17.88;;;14.57;;
60026;SDS011;45891;53.006;6.512;2022-08-16T04:18:12;19.77;;;14.90;;
60026;SDS011;45891;53.006;6.512;2022-08-16T04:20:38;20.02;;;15.40;;
60026;SDS011;45891;53.006;6.512;2022-08-16T04:23:05;19.15;;;15.02;;
60026;SDS011;45891;53.006;6.512;2022-08-16T04:25:34;17.60;;;14.55;;
60026;SDS011;45891;53.006;6.512;2022-08-16T04:28:01;18.50;;;14.52;;
60026;SDS011;45891;53.006;6.512;2022-08-16T04:30:27;18.38;;;14.38;;
60026;SDS011;45891;53.006;6.512;2022-08-16T04:32:53;19.00;;;13.40;;
60026;SDS011;45891;53.006;6.512;2022-08-16T04:35:20;18.45;;;14.05;;
60026;SDS011;45891;53.006;6.512;2022-08-16T04:37:48;19.85;;;15.30;;
60026;SDS011;45891;53.006;6.512;2022-08-16T04:40:16;22.38;;;15.70;;
60026;SDS011;45891;53.006;6.512;2022-08-16T04:42:44;18.83;;;15.27;;
60026;SDS011;45891;53.006;6.512;2022-08-16T04:45:11;18.67;;;15.43;;
60026;SDS011;45891;53.006;6.512;2022-08-16T04:47:39;18.35;;;14.98;;
60026;SDS011;45891;53.006;6.512;2022-08-16T04:50:40;18.77;;;16.65;;
60026;SDS011;45891;53.006;6.512;2022-08-16T04:52:59;19.25;;;16.08;;
60026;SDS011;45891;53.006;6.512;2022-08-16T04:55:26;19.00;;;15.43;;
60026;SDS011;45891;53.006;6.512;2022-08-16T04:57:54;17.67;;;15.23;;
60026;SDS011;45891;53.006;6.512;2022-08-16T05:00:23;21.55;;;16.05;;
60026;SDS011;45891;53.006;6.512;2022-08-16T05:02:52;20.45;;;16.13;;
60026;SDS011;45891;53.006;6.512;2022-08-16T05:05:19;17.77;;;14.93;;
60026;SDS011;45891;53.006;6.512;2022-08-16T05:07:46;18.70;;;16.45;;
60026;SDS011;45891;53.006;6.512;2022-08-16T05:10:13;18.20;;;15.38;;
60026;SDS011;45891;53.006;6.512;2022-08-16T05:12:39;20.58;;;16.17;;
60026;SDS011;45891;53.006;6.512;2022-08-16T05:15:06;18.73;;;14.90;;
60026;SDS011;45891;53.006;6.512;2022-08-16T05:17:34;19.70;;;16.38;;
60026;SDS011;45891;53.006;6.512;2022-08-16T05:20:01;17.85;;;15.77;;
60026;SDS011;45891;53.006;6.512;2022-08-16T05:22:29;21.42;;;17.17;;
60026;SDS011;45891;53.006;6.512;2022-08-16T05:24:55;22.35;;;16.75;;
60026;SDS011;45891;53.006;6.512;2022-08-16T05:27:21;22.70;;;17.35;;
60026;SDS011;45891;53.006;6.512;2022-08-16T05:29:47;22.70;;;17.27;;
60026;SDS011;45891;53.006;6.512;2022-08-16T05:32:13;22.38;;;16.67;;
60026;SDS011;45891;53.006;6.512;2022-08-16T05:34:39;21.88;;;17.25;;
60026;SDS011;45891;53.006;6.512;2022-08-16T05:37:05;20.33;;;18.13;;
60026;SDS011;45891;53.006;6.512;2022-08-16T05:39:31;20.05;;;17.48;;
60026;SDS011;45891;53.006;6.512;2022-08-16T05:41:58;23.73;;;17.70;;
60026;SDS011;45891;53.006;6.512;2022-08-16T05:44:24;23.17;;;18.58;;
60026;SDS011;45891;53.006;6.512;2022-08-16T05:46:51;20.38;;;17.27;;
60026;SDS011;45891;53.006;6.512;2022-08-16T05:49:18;19.27;;;16.30;;
60026;SDS011;45891;53.006;6.512;2022-08-16T05:51:45;21.40;;;17.73;;
60026;SDS011;45891;53.006;6.512;2022-08-16T05:54:12;18.83;;;16.50;;
60026;SDS011;45891;53.006;6.512;2022-08-16T05:56:42;19.88;;;16.45;;
60026;SDS011;45891;53.006;6.512;2022-08-16T05:59:10;22.13;;;16.80;;
60026;SDS011;45891;53.006;6.512;2022-08-16T06:01:38;21.60;;;16.42;;
60026;SDS011;45891;53.006;6.512;2022-08-16T06:04:06;21.10;;;17.27;;
60026;SDS011;45891;53.006;6.512;2022-08-16T06:06:33;20.00;;;15.80;;
60026;SDS011;45891;53.006;6.512;2022-08-16T06:08:59;17.85;;;15.43;;
60026;SDS011;45891;53.006;6.512;2022-08-16T06:11:26;21.88;;;16.00;;
60026;SDS011;45891;53.006;6.512;2022-08-16T06:13:52;20.60;;;15.73;;
60026;SDS011;45891;53.006;6.512;2022-08-16T06:16:18;22.05;;;14.80;;
60026;SDS011;45891;53.006;6.512;2022-08-16T06:18:44;19.98;;;15.10;;
60026;SDS011;45891;53.006;6.512;2022-08-16T06:21:11;20.98;;;14.90;;
60026;SDS011;45891;53.006;6.512;2022-08-16T06:23:39;18.60;;;14.95;;
60026;SDS011;45891;53.006;6.512;2022-08-16T06:26:05;18.30;;;14.65;;
60026;SDS011;45891;53.006;6.512;2022-08-16T06:28:33;16.48;;;14.45;;
60026;SDS011;45891;53.006;6.512;2022-08-16T06:31:00;20.30;;;14.75;;
60026;SDS011;45891;53.006;6.512;2022-08-16T06:33:26;21.45;;;14.77;;
60026;SDS011;45891;53.006;6.512;2022-08-16T06:35:52;19.98;;;14.13;;
60026;SDS011;45891;53.006;6.512;2022-08-16T06:38:20;19.27;;;14.50;;
60026;SDS011;45891;53.006;6.512;2022-08-16T06:40:46;19.10;;;14.43;;
60026;SDS011;45891;53.006;6.512;2022-08-16T06:43:13;19.80;;;15.32;;
60026;SDS011;45891;53.006;6.512;2022-08-16T06:45:39;20.48;;;14.05;;
60026;SDS011;45891;53.006;6.512;2022-08-16T06:48:08;20.70;;;14.15;;
60026;SDS011;45891;53.006;6.512;2022-08-16T06:50:35;22.90;;;14.10;;
60026;SDS011;45891;53.006;6.512;2022-08-16T06:53:02;20.30;;;13.90;;
60026;SDS011;45891;53.006;6.512;2022-08-16T06:55:29;20.10;;;14.60;;
60026;SDS011;45891;53.006;6.512;2022-08-16T06:57:55;22.45;;;14.10;;
60026;SDS011;45891;53.006;6.512;2022-08-16T07:00:22;19.58;;;14.50;;
60026;SDS011;45891;53.006;6.512;2022-08-16T07:02:51;20.98;;;14.40;;
60026;SDS011;45891;53.006;6.512;2022-08-16T07:05:17;18.00;;;14.32;;
60026;SDS011;45891;53.006;6.512;2022-08-16T07:07:45;19.85;;;14.00;;
60026;SDS011;45891;53.006;6.512;2022-08-16T07:10:13;16.90;;;13.20;;
60026;SDS011;45891;53.006;6.512;2022-08-16T07:12:41;19.85;;;13.73;;
60026;SDS011;45891;53.006;6.512;2022-08-16T07:15:08;16.85;;;13.82;;
60026;SDS011;45891;53.006;6.512;2022-08-16T07:17:35;20.02;;;13.13;;
60026;SDS011;45891;53.006;6.512;2022-08-16T07:20:05;16.27;;;12.90;;
60026;SDS011;45891;53.006;6.512;2022-08-16T07:22:32;17.65;;;12.90;;
60026;SDS011;45891;53.006;6.512;2022-08-16T07:24:58;17.38;;;11.77;;
60026;SDS011;45891;53.006;6.512;2022-08-16T07:27:26;17.73;;;12.70;;
60026;SDS011;45891;53.006;6.512;2022-08-16T07:29:52;17.60;;;12.88;;
60026;SDS011;45891;53.006;6.512;2022-08-16T07:32:18;17.65;;;12.82;;
60026;SDS011;45891;53.006;6.512;2022-08-16T07:34:46;15.13;;;12.18;;
60026;SDS011;45891;53.006;6.512;2022-08-16T07:37:13;15.25;;;11.88;;
60026;SDS011;45891;53.006;6.512;2022-08-16T07:39:39;14.82;;;11.55;;
60026;SDS011;45891;53.006;6.512;2022-08-16T07:42:06;15.48;;;11.82;;
60026;SDS011;45891;53.006;6.512;2022-08-16T07:44:32;15.75;;;12.23;;
60026;SDS011;45891;53.006;6.512;2022-08-16T07:46:58;16.48;;;12.23;;
60026;SDS011;45891;53.006;6.512;2022-08-16T07:49:25;19.83;;;11.80;;
60026;SDS011;45891;53.006;6.512;2022-08-16T07:51:51;15.35;;;11.57;;
60026;SDS011;45891;53.006;6.512;2022-08-16T07:54:17;17.17;;;11.60;;
60026;SDS011;45891;53.006;6.512;2022-08-16T07:56:48;18.00;;;11.77;;
60026;SDS011;45891;53.006;6.512;2022-08-16T07:59:15;13.80;;;11.40;;
60026;SDS011;45891;53.006;6.512;2022-08-16T08:01:41;17.23;;;11.48;;
60026;SDS011;45891;53.006;6.512;2022-08-16T08:04:07;17.58;;;10.95;;
60026;SDS011;45891;53.006;6.512;2022-08-16T08:06:37;15.95;;;10.55;;
60026;SDS011;45891;53.006;6.512;2022-08-16T08:09:04;17.83;;;11.02;;
60026;SDS011;45891;53.006;6.512;2022-08-16T08:11:30;18.02;;;10.52;;
60026;SDS011;45891;53.006;6.512;2022-08-16T08:13:58;16.13;;;10.38;;
60026;SDS011;45891;53.006;6.512;2022-08-16T08:16:25;15.75;;;10.13;;
60026;SDS011;45891;53.006;6.512;2022-08-16T08:18:51;16.40;;;9.30;;
60026;SDS011;45891;53.006;6.512;2022-08-16T08:21:19;16.60;;;9.82;;
60026;SDS011;45891;53.006;6.512;2022-08-16T08:23:46;12.75;;;9.02;;
60026;SDS011;45891;53.006;6.512;2022-08-16T08:26:14;13.25;;;8.45;;
60026;SDS011;45891;53.006;6.512;2022-08-16T08:28:40;14.25;;;8.77;;
60026;SDS011;45891;53.006;6.512;2022-08-16T08:31:06;13.80;;;7.82;;
60026;SDS011;45891;53.006;6.512;2022-08-16T08:33:32;12.85;;;7.35;;
60026;SDS011;45891;53.006;6.512;2022-08-16T08:36:00;14.53;;;7.73;;
60026;SDS011;45891;53.006;6.512;2022-08-16T08:38:29;13.23;;;7.50;;
60026;SDS011;45891;53.006;6.512;2022-08-16T08:40:55;12.65;;;7.30;;
60026;SDS011;45891;53.006;6.512;2022-08-16T08:43:21;15.60;;;6.93;;
60026;SDS011;45891;53.006;6.512;2022-08-16T08:45:48;10.10;;;5.70;;
60026;SDS011;45891;53.006;6.512;2022-08-16T08:48:17;13.82;;;6.05;;
60026;SDS011;45891;53.006;6.512;2022-08-16T08:50:43;12.02;;;5.93;;
60026;SDS011;45891;53.006;6.512;2022-08-16T08:53:09;13.27;;;6.55;;
60026;SDS011;45891;53.006;6.512;2022-08-16T08:55:36;12.65;;;6.05;;
60026;SDS011;45891;53.006;6.512;2022-08-16T08:58:02;15.60;;;6.63;;
60026;SDS011;45891;53.006;6.512;2022-08-16T09:00:29;11.57;;;6.72;;
60026;SDS011;45891;53.006;6.512;2022-08-16T09:02:56;14.43;;;6.35;;
60026;SDS011;45891;53.006;6.512;2022-08-16T09:05:22;12.70;;;6.80;;
60026;SDS011;45891;53.006;6.512;2022-08-16T09:07:52;13.00;;;6.22;;
60026;SDS011;45891;53.006;6.512;2022-08-16T09:10:20;11.55;;;5.80;;
60026;SDS011;45891;53.006;6.512;2022-08-16T09:12:47;11.25;;;6.75;;
60026;SDS011;45891;53.006;6.512;2022-08-16T09:15:15;12.32;;;6.57;;
60026;SDS011;45891;53.006;6.512;2022-08-16T09:17:41;9.98;;;5.90;;
60026;SDS011;45891;53.006;6.512;2022-08-16T09:20:09;13.75;;;6.85;;
60026;SDS011;45891;53.006;6.512;2022-08-16T09:22:38;10.13;;;6.00;;
60026;SDS011;45891;53.006;6.512;2022-08-16T09:25:05;10.40;;;6.57;;
60026;SDS011;45891;53.006;6.512;2022-08-16T09:27:31;11.50;;;6.47;;
60026;SDS011;45891;53.006;6.512;2022-08-16T09:29:57;13.02;;;6.47;;
60026;SDS011;45891;53.006;6.512;2022-08-16T09:32:23;12.93;;;6.13;;
60026;SDS011;45891;53.006;6.512;2022-08-16T09:34:51;15.80;;;7.00;;
60026;SDS011;45891;53.006;6.512;2022-08-16T09:37:17;14.40;;;6.63;;
60026;SDS011;45891;53.006;6.512;2022-08-16T09:39:43;12.02;;;5.63;;
60026;SDS011;45891;53.006;6.512;2022-08-16T09:42:09;10.15;;;4.93;;
60026;SDS011;45891;53.006;6.512;2022-08-16T09:44:36;14.80;;;5.57;;
60026;SDS011;45891;53.006;6.512;2022-08-16T09:47:02;9.95;;;5.05;;
60026;SDS011;45891;53.006;6.512;2022-08-16T09:49:28;11.68;;;4.90;;
60026;SDS011;45891;53.006;6.512;2022-08-16T09:51:55;10.85;;;4.88;;
60026;SDS011;45891;53.006;6.512;2022-08-16T09:54:21;10.48;;;4.50;;
60026;SDS011;45891;53.006;6.512;2022-08-16T09:56:49;12.32;;;5.05;;
60026;SDS011;45891;53.006;6.512;2022-08-16T09:59:16;11.32;;;5.35;;
60026;SDS011;45891;53.006;6.512;2022-08-16T10:01:42;10.70;;;5.10;;
60026;SDS011;45891;53.006;6.512;2022-08-16T10:04:13;12.25;;;5.40;;
60026;SDS011;45891;53.006;6.512;2022-08-16T10:06:39;11.88;;;5.30;;
60026;SDS011;45891;53.006;6.512;2022-08-16T10:09:07;9.88;;;5.30;;
60026;SDS011;45891;53.006;6.512;2022-08-16T10:11:34;10.20;;;4.78;;
60026;SDS011;45891;53.006;6.512;2022-08-16T10:14:20;12.10;;;5.90;;
60026;SDS011;45891;53.006;6.512;2022-08-16T10:16:47;12.05;;;5.03;;
60026;SDS011;45891;53.006;6.512;2022-08-16T10:19:13;12.68;;;5.28;;
60026;SDS011;45891;53.006;6.512;2022-08-16T10:21:41;10.85;;;5.10;;
60026;SDS011;45891;53.006;6.512;2022-08-16T10:24:07;13.65;;;5.60;;
60026;SDS011;45891;53.006;6.512;2022-08-16T10:26:34;12.82;;;5.97;;
60026;SDS011;45891;53.006;6.512;2022-08-16T10:29:04;10.68;;;5.40;;
60026;SDS011;45891;53.006;6.512;2022-08-16T10:31:31;13.05;;;5.72;;
60026;SDS011;45891;53.006;6.512;2022-08-16T10:33:58;11.38;;;5.80;;
60026;SDS011;45891;53.006;6.512;2022-08-16T10:36:26;13.57;;;5.90;;
60026;SDS011;45891;53.006;6.512;2022-08-16T10:38:53;10.35;;;6.22;;
60026;SDS011;45891;53.006;6.512;2022-08-16T10:41:19;11.75;;;5.95;;
60026;SDS011;45891;53.006;6.512;2022-08-16T10:43:45;11.75;;;5.50;;
60026;SDS011;45891;53.006;6.512;2022-08-16T10:46:12;12.05;;;5.70;;
60026;SDS011;45891;53.006;6.512;2022-08-16T10:48:39;9.55;;;5.53;;
60026;SDS011;45891;53.006;6.512;2022-08-16T10:51:07;13.50;;;5.53;;
60026;SDS011;45891;53.006;6.512;2022-08-16T10:53:34;10.10;;;5.50;;
60026;SDS011;45891;53.006;6.512;2022-08-16T10:56:02;11.00;;;5.82;;
60026;SDS011;45891;53.006;6.512;2022-08-16T11:00:58;9.77;;;5.28;;
60026;SDS011;45891;53.006;6.512;2022-08-16T11:03:24;10.80;;;4.32;;
60026;SDS011;45891;53.006;6.512;2022-08-16T11:05:53;11.02;;;4.97;;
60026;SDS011;45891;53.006;6.512;2022-08-16T11:08:19;11.57;;;4.97;;
60026;SDS011;45891;53.006;6.512;2022-08-16T11:10:45;11.68;;;4.90;;
60026;SDS011;45891;53.006;6.512;2022-08-16T11:13:16;10.13;;;4.55;;
60026;SDS011;45891;53.006;6.512;2022-08-16T11:15:44;11.52;;;4.30;;
60026;SDS011;45891;53.006;6.512;2022-08-16T11:18:11;10.35;;;4.82;;
60026;SDS011;45891;53.006;6.512;2022-08-16T11:20:40;11.48;;;4.53;;
60026;SDS011;45891;53.006;6.512;2022-08-16T11:23:09;9.80;;;4.90;;
60026;SDS011;45891;53.006;6.512;2022-08-16T11:25:36;14.75;;;4.60;;
60026;SDS011;45891;53.006;6.512;2022-08-16T11:28:03;9.20;;;4.43;;
60026;SDS011;45891;53.006;6.512;2022-08-16T11:33:07;11.35;;;4.95;;
60026;SDS011;45891;53.006;6.512;2022-08-16T11:35:35;11.18;;;5.30;;
60026;SDS011;45891;53.006;6.512;2022-08-16T11:38:06;13.83;;;5.10;;
60026;SDS011;45891;53.006;6.512;2022-08-16T11:40:39;12.80;;;5.30;;
60026;SDS011;45891;53.006;6.512;2022-08-16T11:43:12;9.52;;;4.70;;
60026;SDS011;45891;53.006;6.512;2022-08-16T11:45:39;10.30;;;4.78;;
60026;SDS011;45891;53.006;6.512;2022-08-16T11:48:05;12.00;;;5.40;;
60026;SDS011;45891;53.006;6.512;2022-08-16T11:50:32;11.63;;;5.30;;
60026;SDS011;45891;53.006;6.512;2022-08-16T11:52:59;10.13;;;5.00;;
60026;SDS011;45891;53.006;6.512;2022-08-16T11:55:26;11.00;;;5.07;;
60026;SDS011;45891;53.006;6.512;2022-08-16T11:57:53;11.40;;;4.50;;
60026;SDS011;45891;53.006;6.512;2022-08-16T12:00:19;10.98;;;5.90;;
60026;SDS011;45891;53.006;6.512;2022-08-16T12:02:45;10.93;;;5.57;;
60026;SDS011;45891;53.006;6.512;2022-08-16T12:05:12;12.18;;;4.60;;
60026;SDS011;45891;53.006;6.512;2022-08-16T12:07:40;15.25;;;5.80;;
60026;SDS011;45891;53.006;6.512;2022-08-16T12:10:08;11.13;;;4.80;;
60026;SDS011;45891;53.006;6.512;2022-08-16T12:12:41;10.55;;;4.80;;
60026;SDS011;45891;53.006;6.512;2022-08-16T12:15:08;12.13;;;5.03;;
60026;SDS011;45891;53.006;6.512;2022-08-16T12:17:37;10.38;;;4.15;;
60026;SDS011;45891;53.006;6.512;2022-08-16T12:20:06;10.30;;;4.15;;
60026;SDS011;45891;53.006;6.512;2022-08-16T12:22:36;11.80;;;4.40;;
60026;SDS011;45891;53.006;6.512;2022-08-16T12:25:10;11.60;;;4.50;;
60026;SDS011;45891;53.006;6.512;2022-08-16T12:27:38;9.25;;;4.10;;
60026;SDS011;45891;53.006;6.512;2022-08-16T12:30:05;10.77;;;4.70;;
60026;SDS011;45891;53.006;6.512;2022-08-16T12:32:33;8.90;;;4.30;;
60026;SDS011;45891;53.006;6.512;2022-08-16T12:34:59;11.07;;;4.75;;
60026;SDS011;45891;53.006;6.512;2022-08-16T12:37:26;10.25;;;4.20;;
60026;SDS011;45891;53.006;6.512;2022-08-16T12:39:53;7.95;;;3.70;;
60026;SDS011;45891;53.006;6.512;2022-08-16T12:42:21;9.80;;;3.90;;
60026;SDS011;45891;53.006;6.512;2022-08-16T12:44:49;11.38;;;4.90;;
60026;SDS011;45891;53.006;6.512;2022-08-16T12:47:15;9.60;;;4.28;;
60026;SDS011;45891;53.006;6.512;2022-08-16T12:50:00;9.70;;;4.00;;
60026;SDS011;45891;53.006;6.512;2022-08-16T12:52:27;11.18;;;3.50;;
60026;SDS011;45891;53.006;6.512;2022-08-16T12:54:54;11.85;;;3.70;;
60026;SDS011;45891;53.006;6.512;2022-08-16T12:57:22;8.68;;;3.42;;
60026;SDS011;45891;53.006;6.512;2022-08-16T12:59:50;9.77;;;3.60;;
60026;SDS011;45891;53.006;6.512;2022-08-16T13:02:17;9.43;;;3.30;;
60026;SDS011;45891;53.006;6.512;2022-08-16T13:04:44;12.18;;;3.30;;
60026;SDS011;45891;53.006;6.512;2022-08-16T13:07:10;11.48;;;3.63;;
60026;SDS011;45891;53.006;6.512;2022-08-16T13:09:38;11.25;;;4.03;;
60026;SDS011;45891;53.006;6.512;2022-08-16T13:12:16;8.95;;;3.30;;
60026;SDS011;45891;53.006;6.512;2022-08-16T13:14:48;11.23;;;3.60;;
60026;SDS011;45891;53.006;6.512;2022-08-16T13:17:20;10.68;;;3.30;;
60026;SDS011;45891;53.006;6.512;2022-08-16T13:19:50;9.27;;;3.70;;
60026;SDS011;45891;53.006;6.512;2022-08-16T13:22:17;8.55;;;3.47;;
60026;SDS011;45891;53.006;6.512;2022-08-16T13:24:44;8.23;;;3.50;;
60026;SDS011;45891;53.006;6.512;2022-08-16T13:27:11;9.77;;;3.38;;
60026;SDS011;45891;53.006;6.512;2022-08-16T13:29:37;9.02;;;3.60;;
60026;SDS011;45891;53.006;6.512;2022-08-16T13:32:03;9.00;;;3.90;;
60026;SDS011;45891;53.006;6.512;2022-08-16T13:34:30;8.52;;;3.58;;
60026;SDS011;45891;53.006;6.512;2022-08-16T13:36:56;10.15;;;3.95;;
60026;SDS011;45891;53.006;6.512;2022-08-16T13:39:22;9.80;;;3.80;;
60026;SDS011;45891;53.006;6.512;2022-08-16T13:41:48;14.27;;;4.28;;
60026;SDS011;45891;53.006;6.512;2022-08-16T13:44:14;10.32;;;3.90;;
60026;SDS011;45891;53.006;6.512;2022-08-16T13:46:43;10.70;;;4.63;;
60026;SDS011;45891;53.006;6.512;2022-08-16T13:49:12;10.65;;;3.90;;
60026;SDS011;45891;53.006;6.512;2022-08-16T13:51:38;10.10;;;4.45;;
60026;SDS011;45891;53.006;6.512;2022-08-16T13:54:05;8.45;;;3.95;;
60026;SDS011;45891;53.006;6.512;2022-08-16T13:56:31;11.02;;;4.18;;
60026;SDS011;45891;53.006;6.512;2022-08-16T13:58:59;12.88;;;4.75;;
60026;SDS011;45891;53.006;6.512;2022-08-16T14:01:25;9.13;;;4.47;;
60026;SDS011;45891;53.006;6.512;2022-08-16T14:03:51;11.40;;;4.65;;
60026;SDS011;45891;53.006;6.512;2022-08-16T14:06:18;14.55;;;5.60;;
60026;SDS011;45891;53.006;6.512;2022-08-16T14:08:45;12.20;;;5.20;;
60026;SDS011;45891;53.006;6.512;2022-08-16T14:11:13;12.85;;;7.22;;
60026;SDS011;45891;53.006;6.512;2022-08-16T14:13:40;10.80;;;4.40;;
60026;SDS011;45891;53.006;6.512;2022-08-16T14:16:08;11.27;;;4.53;;
60026;SDS011;45891;53.006;6.512;2022-08-16T14:18:34;9.55;;;4.90;;
60026;SDS011;45891;53.006;6.512;2022-08-16T14:21:00;10.40;;;4.78;;
60026;SDS011;45891;53.006;6.512;2022-08-16T14:23:26;10.25;;;4.30;;
60026;SDS011;45891;53.006;6.512;2022-08-16T14:25:53;14.40;;;8.55;;
60026;SDS011;45891;53.006;6.512;2022-08-16T14:28:19;15.88;;;7.45;;
60026;SDS011;45891;53.006;6.512;2022-08-16T14:30:45;13.55;;;5.68;;
60026;SDS011;45891;53.006;6.512;2022-08-16T14:33:12;13.57;;;4.93;;
60026;SDS011;45891;53.006;6.512;2022-08-16T14:35:38;11.48;;;5.90;;
60026;SDS011;45891;53.006;6.512;2022-08-16T14:38:04;17.73;;;10.73;;
60026;SDS011;45891;53.006;6.512;2022-08-16T14:40:31;15.88;;;8.23;;